Details for Ryanair at LEPA




Go Back


Latest METAR
Local Time

LEPA 220900Z 28003KT CAVOK 27/21 Q1023 NOSIG
22/09/2018, 11:05:32

Description
Results
Ryanair Logo
Number of Pilots based at LEPA
0 Pilots Based here
Number of Ryanair Flights Departed from LEPA
14 Flights Departed
Number of Ryanair Flights Arrived at LEPA
14 Flights Arrived
Number of Ryanair Schedules Departing from LEPA
146 Schedules
Number of Ryanair Schedules Arriving at LEPA
148 Schedules
Number of Ryanair Schedules Departing from LEPA availible today
47 Schedules Today
Number of Ryanair Schedules Arriving at LEPA availible today
47 Schedules Today
Average Landing Rate at LEPA
-165 fpm
Ryanair Average Landing Rate at LEPA
-137 fpm
Total Fuel Purchased at LEPA by Ryanair
76,223.93 kgs / 168,043.28 lbs

Pilots Based at LEPA


Pilot ID
Pilot Name
Pilot Rank
No. of Flights
No. of Flying Hours
There are no pilots assigned to this hub!   Will you be the first?
Content